createdAt,value
2023-05-01T00:01:14.232Z,13.66
2023-05-01T00:04:19.296Z,13.77
2023-05-01T00:07:25.372Z,14.44
2023-05-01T00:10:40.753Z,14.87
2023-05-01T00:13:45.192Z,15.81
2023-05-01T00:16:50.097Z,15.12
2023-05-01T00:19:57.542Z,15.26
2023-05-01T00:23:02.549Z,15.96
2023-05-01T00:26:08.868Z,16.61
2023-05-01T00:29:13.794Z,15.97
2023-05-01T00:32:24.050Z,15.30
2023-05-01T00:35:39.676Z,15.90
2023-05-01T00:38:44.276Z,16.87
2023-05-01T00:41:51.414Z,16.52
2023-05-01T00:44:57.532Z,16.44
2023-05-01T00:48:09.127Z,16.74
2023-05-01T00:51:14.662Z,17.54
2023-05-01T00:54:20.617Z,16.28
2023-05-01T00:57:25.066Z,17.97
2023-05-01T01:00:30.308Z,16.05
2023-05-01T01:03:34.588Z,16.83
2023-05-01T01:06:59.586Z,17.15
2023-05-01T01:10:09.573Z,18.00
2023-05-01T01:13:33.522Z,18.16
2023-05-01T01:16:51.391Z,17.77
2023-05-01T01:20:25.772Z,16.61
2023-05-01T01:23:57.154Z,16.69
2023-05-01T01:27:31.121Z,17.19
2023-05-01T01:31:15.065Z,17.21
2023-05-01T01:39:19.120Z,16.68
2023-05-01T01:42:37.748Z,17.31
2023-05-01T01:45:58.036Z,17.97
2023-05-01T01:49:21.127Z,16.25
2023-05-01T01:52:30.994Z,15.05
2023-05-01T01:55:41.963Z,15.40
2023-05-01T01:59:02.858Z,16.13
2023-05-01T02:02:27.321Z,14.45
2023-05-01T02:05:40.535Z,15.05
2023-05-01T02:08:55.291Z,15.31
2023-05-01T02:12:08.896Z,14.37
2023-05-01T02:15:15.274Z,14.83
2023-05-01T02:18:22.076Z,15.07
2023-05-01T02:21:36.244Z,16.24
2023-05-01T02:24:55.338Z,16.57
2023-05-01T02:28:05.560Z,15.93
2023-05-01T02:31:22.874Z,16.14
2023-05-01T02:34:30.571Z,16.00
2023-05-01T02:37:59.962Z,15.46
2023-05-01T02:41:15.441Z,15.69
2023-05-01T02:44:27.513Z,15.49
2023-05-01T02:47:42.592Z,14.95
2023-05-01T02:50:52.833Z,14.88
2023-05-01T02:53:57.980Z,14.79
2023-05-01T02:57:08.285Z,15.18
2023-05-01T03:00:14.680Z,15.73
2023-05-01T03:03:19.140Z,15.28
2023-05-01T03:12:48.909Z,16.50
2023-05-01T03:15:58.774Z,16.26
2023-05-01T03:19:05.489Z,15.71
2023-05-01T03:22:10.461Z,15.95
2023-05-01T03:25:17.764Z,16.20
2023-05-01T03:28:25.747Z,16.08
2023-05-01T03:31:30.511Z,15.72
2023-05-01T03:34:36.389Z,15.69
2023-05-01T03:37:42.316Z,15.19
2023-05-01T03:40:52.894Z,14.98
2023-05-01T03:44:15.857Z,15.12
2023-05-01T03:47:21.938Z,15.10
2023-05-01T03:50:29.346Z,14.12
2023-05-01T03:53:34.242Z,14.83
2023-05-01T03:56:45.534Z,14.68
2023-05-01T04:00:03.879Z,14.98
2023-05-01T04:03:23.881Z,14.74
2023-05-01T04:06:30.786Z,14.78
2023-05-01T04:09:38.776Z,14.91
2023-05-01T04:12:43.877Z,14.78
2023-05-01T04:15:48.581Z,14.66
2023-05-01T04:18:53.788Z,14.86
2023-05-01T04:21:59.065Z,14.33
2023-05-01T04:25:17.301Z,14.58
2023-05-01T04:28:34.143Z,14.71
2023-05-01T04:31:41.974Z,15.25
2023-05-01T04:34:49.718Z,14.80
2023-05-01T04:37:56.898Z,14.98
2023-05-01T04:41:01.762Z,14.57
2023-05-01T04:55:15.287Z,14.52
2023-05-01T04:58:45.197Z,15.07
2023-05-01T05:02:00.870Z,14.50
2023-05-01T05:05:15.570Z,14.41
2023-05-01T05:08:19.617Z,14.11
2023-05-01T05:11:30.675Z,14.35
2023-05-01T05:14:42.800Z,14.10
2023-05-01T05:17:56.371Z,14.26
2023-05-01T05:21:11.398Z,14.32
2023-05-01T05:24:21.071Z,14.19
2023-05-01T05:27:25.676Z,14.28
2023-05-01T05:30:33.532Z,14.26
2023-05-01T05:33:42.703Z,14.07
2023-05-01T05:36:52.381Z,14.03
2023-05-01T05:40:00.893Z,13.88
2023-05-01T05:43:12.464Z,13.95
2023-05-01T05:46:19.355Z,14.24
2023-05-01T05:49:34.748Z,14.42
2023-05-01T05:52:43.248Z,14.50
2023-05-01T05:55:59.083Z,14.29
2023-05-01T05:59:14.470Z,14.21
2023-05-01T06:02:23.459Z,14.18
2023-05-01T06:05:28.520Z,14.25
2023-05-01T06:08:38.254Z,14.53
2023-05-01T06:11:56.153Z,14.35
2023-05-01T06:15:00.991Z,14.49
2023-05-01T06:18:17.112Z,14.25
2023-05-01T06:21:24.737Z,14.30
2023-05-01T06:24:29.008Z,14.09
2023-05-01T06:27:35.786Z,13.96
2023-05-01T06:30:40.897Z,14.47
2023-05-01T06:33:48.095Z,14.51
2023-05-01T06:37:09.336Z,14.55
2023-05-01T06:40:16.142Z,14.07
2023-05-01T06:43:24.598Z,13.66
2023-05-01T06:46:30.746Z,14.24
2023-05-01T06:49:40.637Z,14.35
2023-05-01T07:23:29.053Z,13.84
2023-05-01T07:26:48.519Z,14.08
2023-05-01T07:29:58.965Z,14.19
2023-05-01T07:34:13.510Z,14.59
2023-05-01T07:42:21.345Z,13.91
2023-05-01T07:53:51.708Z,14.49
2023-05-01T07:56:57.203Z,14.01
2023-05-01T08:00:01.618Z,14.02
2023-05-01T08:03:17.492Z,14.19
2023-05-01T08:06:22.093Z,14.08
2023-05-01T08:09:31.727Z,14.28
2023-05-01T08:12:36.779Z,14.40
2023-05-01T08:15:45.310Z,14.39
2023-05-01T08:18:50.310Z,14.32
2023-05-01T08:21:54.930Z,14.25
2023-05-01T08:24:59.492Z,14.19
2023-05-01T08:28:11.225Z,14.16
2023-05-01T08:31:40.189Z,13.74
2023-05-01T08:34:44.822Z,14.26
2023-05-01T08:37:55.559Z,14.42
2023-05-01T08:41:02.341Z,14.52
2023-05-01T08:44:29.647Z,14.55
2023-05-01T08:47:37.469Z,14.32
2023-05-01T08:50:46.930Z,14.37
2023-05-01T08:53:53.057Z,14.32
2023-05-01T08:57:07.224Z,14.19
2023-05-01T09:00:22.211Z,13.96
2023-05-01T09:03:29.065Z,14.03
2023-05-01T09:06:36.151Z,13.98
2023-05-01T09:09:40.831Z,13.87
2023-05-01T09:12:48.417Z,13.75
2023-05-01T09:15:52.620Z,13.57
2023-05-01T09:18:58.800Z,13.23
2023-05-01T09:22:03.420Z,13.46
2023-05-01T09:25:11.862Z,13.52
2023-05-01T09:28:18.833Z,13.42
2023-05-01T09:31:33.459Z,13.27
2023-05-01T09:34:40.470Z,13.14
2023-05-01T09:37:51.822Z,12.97
2023-05-01T09:41:07.244Z,12.93
2023-05-01T09:44:22.469Z,12.87
2023-05-01T09:47:29.558Z,12.88
2023-05-01T09:50:36.005Z,12.56
2023-05-01T09:53:42.610Z,12.34
2023-05-01T09:56:51.172Z,12.09
2023-05-01T10:00:18.444Z,11.94
2023-05-01T10:03:23.628Z,11.85
2023-05-01T10:06:31.411Z,11.65
2023-05-01T10:09:38.260Z,11.38
2023-05-01T10:12:45.133Z,11.07
2023-05-01T10:15:51.034Z,10.93
2023-05-01T10:18:59.126Z,10.95
2023-05-01T10:22:04.241Z,10.81
2023-05-01T10:25:10.962Z,10.92
2023-05-01T10:28:15.788Z,10.85
2023-05-01T10:31:23.158Z,10.67
2023-05-01T10:34:28.510Z,10.40
2023-05-01T10:37:41.901Z,10.50
2023-05-01T10:40:50.583Z,10.34
2023-05-01T10:44:21.806Z,10.16
2023-05-01T10:47:26.055Z,10.21
2023-05-01T10:50:30.552Z,10.02
2023-05-01T10:53:35.170Z,9.74
2023-05-01T10:56:45.697Z,9.74
2023-05-01T11:00:08.096Z,9.43
2023-05-01T11:03:24.540Z,9.03
2023-05-01T11:06:29.525Z,8.64
2023-05-01T11:09:38.973Z,8.77
2023-05-01T11:12:47.593Z,8.54
2023-05-01T11:15:52.730Z,8.30
2023-05-01T11:18:58.255Z,8.30
2023-05-01T11:22:03.055Z,8.08
2023-05-01T11:25:21.472Z,8.05
2023-05-01T11:28:25.977Z,7.81
2023-05-01T11:31:31.171Z,7.79
2023-05-01T11:34:45.423Z,8.02
2023-05-01T11:37:57.846Z,7.65
2023-05-01T11:41:10.089Z,7.77
2023-05-01T11:44:19.957Z,7.48
2023-05-01T11:47:27.301Z,7.36
2023-05-01T11:50:37.268Z,6.80
2023-05-01T11:53:44.002Z,7.18
2023-05-01T11:56:49.447Z,6.95
2023-05-01T12:00:10.311Z,6.40
2023-05-01T12:03:18.966Z,6.70
2023-05-01T12:06:25.713Z,6.60
2023-05-01T12:09:32.650Z,6.60
2023-05-01T12:12:39.410Z,6.55
2023-05-01T12:15:49.309Z,6.61
2023-05-01T12:18:56.384Z,6.60
2023-05-01T12:22:08.608Z,6.89
2023-05-01T12:25:15.345Z,6.84
2023-05-01T12:28:22.413Z,6.34
2023-05-01T12:31:28.239Z,6.45
2023-05-01T12:34:34.581Z,6.49
2023-05-01T12:37:40.000Z,6.33
2023-05-01T12:40:57.524Z,6.19
2023-05-01T12:44:02.537Z,6.85
2023-05-01T12:47:09.075Z,7.27
2023-05-01T12:50:13.721Z,7.40
2023-05-01T12:53:18.791Z,7.38
2023-05-01T12:56:25.026Z,6.86
2023-05-01T12:59:29.717Z,6.33
2023-05-01T13:02:37.678Z,6.39
2023-05-01T13:06:05.756Z,6.33
2023-05-01T13:09:13.052Z,6.33
2023-05-01T13:12:17.281Z,6.75
2023-05-01T13:15:22.985Z,6.46
2023-05-01T13:18:30.458Z,6.20
2023-05-01T13:21:35.220Z,5.97
2023-05-01T13:24:45.660Z,5.69
2023-05-01T13:27:52.208Z,5.89
2023-05-01T13:30:57.031Z,5.49
2023-05-01T13:34:01.844Z,5.69
2023-05-01T13:37:11.045Z,5.59
2023-05-01T13:40:15.839Z,5.52
2023-05-01T13:43:21.991Z,5.32
2023-05-01T13:46:30.031Z,5.09
2023-05-01T13:49:34.691Z,5.09
2023-05-01T13:52:49.305Z,4.80
2023-05-01T13:55:53.206Z,4.87
2023-05-01T13:58:57.240Z,5.06
2023-05-01T14:02:01.892Z,4.90
2023-05-01T14:05:12.858Z,4.64
2023-05-01T14:08:20.228Z,4.54
2023-05-01T14:11:24.638Z,4.40
2023-05-01T14:14:32.383Z,4.35
2023-05-01T14:17:40.376Z,4.63
2023-05-01T14:20:50.156Z,4.66
2023-05-01T14:23:55.927Z,4.71
2023-05-01T14:26:59.682Z,4.52
2023-05-01T14:30:09.154Z,4.53
2023-05-01T14:33:15.294Z,4.58
2023-05-01T14:36:20.111Z,4.70
2023-05-01T14:39:26.740Z,5.27
2023-05-01T14:42:34.095Z,5.14
2023-05-01T14:45:46.810Z,5.68
2023-05-01T14:48:51.497Z,6.14
2023-05-01T14:51:56.505Z,6.47
2023-05-01T14:55:03.549Z,6.63
2023-05-01T14:58:08.498Z,6.97
2023-05-01T15:01:14.588Z,7.03
2023-05-01T15:04:21.350Z,7.06
2023-05-01T15:07:26.022Z,7.18
2023-05-01T15:10:32.905Z,7.24
2023-05-01T15:13:37.487Z,7.31
2023-05-01T15:16:44.268Z,7.61
2023-05-01T15:19:48.302Z,7.52
2023-05-01T15:22:52.814Z,7.51
2023-05-01T15:25:57.186Z,7.64
2023-05-01T15:29:01.381Z,7.63
2023-05-01T15:32:12.480Z,7.53
2023-05-01T15:35:22.316Z,7.59
2023-05-01T15:38:29.938Z,7.50
2023-05-01T15:41:33.916Z,7.72
2023-05-01T15:44:43.458Z,7.70
2023-05-01T15:47:47.519Z,7.47
2023-05-01T15:50:52.164Z,7.44
2023-05-01T15:53:57.817Z,7.28
2023-05-01T15:57:04.894Z,7.40
2023-05-01T16:00:11.458Z,7.60
2023-05-01T16:03:16.175Z,7.57
2023-05-01T16:06:21.072Z,7.49
2023-05-01T16:09:31.864Z,7.38
2023-05-01T16:12:41.320Z,7.13
2023-05-01T16:15:47.932Z,7.37
2023-05-01T16:18:59.941Z,7.34
2023-05-01T16:22:07.823Z,7.47
2023-05-01T16:25:13.048Z,7.50
2023-05-01T16:28:18.340Z,7.47
2023-05-01T16:31:27.716Z,7.42
2023-05-01T16:34:32.821Z,7.28
2023-05-01T16:37:36.966Z,7.42
2023-05-01T16:40:44.782Z,7.39
2023-05-01T16:43:50.646Z,7.41
2023-05-01T16:47:01.896Z,7.44
2023-05-01T16:50:10.791Z,7.55
2023-05-01T16:53:17.689Z,7.68
2023-05-01T16:56:22.810Z,7.49
2023-05-01T16:59:30.646Z,7.58
2023-05-01T17:02:35.024Z,7.63
2023-05-01T17:05:39.141Z,7.62
2023-05-01T17:08:44.529Z,7.60
2023-05-01T17:11:49.252Z,7.45
2023-05-01T17:14:54.605Z,7.48
2023-05-01T17:17:59.194Z,7.60
2023-05-01T17:21:03.880Z,7.57
2023-05-01T17:24:08.441Z,7.52
2023-05-01T17:27:13.162Z,7.54
2023-05-01T17:30:19.320Z,7.51
2023-05-01T17:33:26.704Z,7.36
2023-05-01T17:36:30.713Z,7.58
2023-05-01T17:39:35.039Z,7.60
2023-05-01T17:42:39.771Z,7.39
2023-05-01T17:45:46.325Z,7.41
2023-05-01T17:48:54.391Z,7.38
2023-05-01T17:52:00.059Z,7.44
2023-05-01T17:55:06.545Z,7.19
2023-05-01T17:58:17.699Z,7.39
2023-05-01T18:01:22.505Z,7.45
2023-05-01T18:04:27.175Z,7.21
2023-05-01T18:07:31.985Z,7.19
2023-05-01T18:10:36.042Z,7.37
2023-05-01T18:13:48.983Z,7.41
2023-05-01T18:16:53.691Z,7.38
2023-05-01T18:19:58.579Z,7.52
2023-05-01T18:23:03.780Z,7.35
2023-05-01T18:26:09.102Z,7.52
2023-05-01T18:29:17.594Z,7.24
2023-05-01T18:35:26.549Z,7.37
2023-05-01T18:38:30.988Z,7.49
2023-05-01T18:41:38.732Z,7.40
2023-05-01T18:44:43.170Z,7.41
2023-05-01T18:47:50.892Z,7.51
2023-05-01T18:51:08.629Z,7.28
2023-05-01T18:54:14.857Z,7.41
2023-05-01T18:57:19.373Z,7.26
2023-05-01T19:00:26.845Z,7.28
2023-05-01T19:03:36.819Z,6.82
2023-05-01T19:06:41.651Z,7.42
2023-05-01T19:09:48.868Z,7.42
2023-05-01T19:12:53.153Z,7.29
2023-05-01T19:15:57.544Z,7.18
2023-05-01T19:19:04.588Z,7.49
2023-05-01T19:22:09.107Z,7.20
2023-05-01T19:25:13.471Z,7.27
2023-05-01T19:28:20.346Z,7.12
2023-05-01T19:31:25.968Z,7.22
2023-05-01T19:34:30.842Z,7.36
2023-05-01T19:37:40.582Z,7.45
2023-05-01T19:40:46.212Z,7.30
2023-05-01T19:43:50.403Z,7.08
2023-05-01T19:46:54.279Z,7.28
2023-05-01T19:50:00.135Z,7.26
2023-05-01T19:53:07.257Z,7.15
2023-05-01T19:56:13.593Z,7.13
2023-05-01T19:59:21.233Z,7.17
2023-05-01T20:02:26.851Z,7.25
2023-05-01T20:05:34.044Z,7.15
2023-05-01T20:08:42.724Z,6.86
2023-05-01T20:11:48.745Z,6.94
2023-05-01T20:14:53.375Z,7.20
2023-05-01T20:18:03.315Z,7.33
2023-05-01T20:21:08.569Z,7.29
2023-05-01T20:24:15.336Z,7.21
2023-05-01T20:27:21.659Z,7.06
2023-05-01T20:30:25.722Z,7.00
2023-05-01T20:33:30.271Z,7.40
2023-05-01T20:36:34.681Z,7.33
2023-05-01T20:39:38.977Z,7.38
2023-05-01T20:42:43.957Z,7.62
2023-05-01T20:45:51.431Z,7.57
2023-05-01T20:48:56.824Z,7.45
2023-05-01T20:52:01.546Z,7.30
2023-05-01T20:55:06.892Z,7.24
2023-05-01T20:58:11.527Z,7.32
2023-05-01T21:01:17.669Z,7.45
2023-05-01T21:04:27.288Z,7.72
2023-05-01T21:27:13.596Z,9.88
2023-05-01T21:30:34.097Z,10.39
2023-05-01T21:33:40.335Z,11.24
2023-05-01T21:36:48.037Z,11.82
2023-05-01T21:39:55.554Z,12.35
2023-05-01T21:43:02.625Z,12.99
2023-05-01T21:46:08.353Z,13.62
2023-05-01T21:49:13.454Z,13.86
2023-05-01T21:52:19.412Z,15.02
2023-05-01T21:55:29.950Z,15.11
2023-05-01T21:58:34.517Z,15.34
2023-05-01T22:01:41.988Z,15.36
2023-05-01T22:04:46.535Z,15.69
2023-05-01T22:07:54.877Z,16.73
2023-05-01T22:11:01.835Z,16.73
2023-05-01T22:14:08.836Z,17.52
2023-05-01T22:17:14.987Z,17.27
2023-05-01T22:20:24.075Z,18.16
2023-05-01T22:23:28.712Z,17.63
2023-05-01T22:26:34.571Z,18.30
2023-05-01T22:29:41.625Z,19.24
2023-05-01T22:32:45.806Z,19.23
2023-05-01T22:35:50.384Z,19.87
2023-05-01T22:38:54.890Z,20.00
2023-05-01T22:41:59.571Z,20.45
2023-05-01T22:45:07.906Z,20.44
2023-05-01T22:48:12.120Z,20.57
2023-05-01T22:51:19.708Z,19.88
2023-05-01T22:54:24.507Z,20.06
2023-05-01T22:57:36.013Z,20.38
2023-05-01T23:00:40.356Z,19.77
2023-05-01T23:03:45.099Z,19.18
2023-05-01T23:06:54.831Z,18.92
2023-05-01T23:10:02.277Z,18.64
2023-05-01T23:13:18.309Z,17.80
2023-05-01T23:16:22.303Z,17.52
2023-05-01T23:19:27.626Z,17.32
2023-05-01T23:22:32.134Z,17.78
2023-05-01T23:25:45.582Z,17.68
2023-05-01T23:28:50.070Z,17.89
2023-05-01T23:31:57.890Z,17.71
2023-05-01T23:35:11.068Z,17.59
2023-05-01T23:38:15.271Z,18.51
2023-05-01T23:41:19.938Z,19.26
2023-05-01T23:44:26.903Z,19.89
2023-05-01T23:47:31.852Z,20.45
2023-05-01T23:50:39.143Z,20.97
2023-05-01T23:53:43.987Z,21.36
2023-05-01T23:56:48.091Z,20.68
2023-05-01T23:59:58.186Z,20.79
